sensor_id;sensor_type;location;lat;lon;timestamp;temperature;humidity
13123;DHT22;6627;50.920;12.050;2023-02-28T00:01:24;-0.80;1.00
13123;DHT22;6627;50.920;12.050;2023-02-28T00:06:23;-0.80;99.90
13123;DHT22;6627;50.920;12.050;2023-02-28T00:08:51;-0.70;99.90
13123;DHT22;6627;50.920;12.050;2023-02-28T00:11:19;-0.70;99.90
13123;DHT22;6627;50.920;12.050;2023-02-28T00:13:48;-0.60;53.50
13123;DHT22;6627;50.920;12.050;2023-02-28T00:16:17;-0.50;1.00
13123;DHT22;6627;50.920;12.050;2023-02-28T00:18:46;-0.50;1.00
13123;DHT22;6627;50.920;12.050;2023-02-28T00:21:16;-0.50;1.00
13123;DHT22;6627;50.920;12.050;2023-02-28T00:23:44;-0.50;1.00
13123;DHT22;6627;50.920;12.050;2023-02-28T00:26:12;-0.50;1.00
13123;DHT22;6627;50.920;12.050;2023-02-28T00:28:39;-0.60;1.00
13123;DHT22;6627;50.920;12.050;2023-02-28T00:31:07;-0.50;1.00
13123;DHT22;6627;50.920;12.050;2023-02-28T00:33:34;-0.70;1.00
13123;DHT22;6627;50.920;12.050;2023-02-28T00:36:06;-0.80;1.00
13123;DHT22;6627;50.920;12.050;2023-02-28T00:38:36;-0.70;92.10
13123;DHT22;6627;50.920;12.050;2023-02-28T00:41:04;-0.60;99.90
13123;DHT22;6627;50.920;12.050;2023-02-28T00:43:32;-0.70;99.90
13123;DHT22;6627;50.920;12.050;2023-02-28T00:46:00;-0.60;99.90
13123;DHT22;6627;50.920;12.050;2023-02-28T00:48:28;-0.60;99.90
13123;DHT22;6627;50.920;12.050;2023-02-28T00:50:55;-0.60;99.90
13123;DHT22;6627;50.920;12.050;2023-02-28T00:53:22;-0.60;99.90
13123;DHT22;6627;50.920;12.050;2023-02-28T00:55:51;-0.50;96.60
13123;DHT22;6627;50.920;12.050;2023-02-28T00:58:18;-0.50;99.90
13123;DHT22;6627;50.920;12.050;2023-02-28T01:03:15;-0.70;99.90
13123;DHT22;6627;50.920;12.050;2023-02-28T01:05:43;-0.80;99.90
13123;DHT22;6627;50.920;12.050;2023-02-28T01:08:10;-0.70;99.90
13123;DHT22;6627;50.920;12.050;2023-02-28T01:10:37;-0.70;99.90
13123;DHT22;6627;50.920;12.050;2023-02-28T01:13:06;-0.70;99.90
13123;DHT22;6627;50.920;12.050;2023-02-28T01:15:33;-0.70;99.90
13123;DHT22;6627;50.920;12.050;2023-02-28T01:18:00;-0.70;99.90
13123;DHT22;6627;50.920;12.050;2023-02-28T01:20:27;-0.60;99.90
13123;DHT22;6627;50.920;12.050;2023-02-28T01:22:55;-0.60;99.90
13123;DHT22;6627;50.920;12.050;2023-02-28T01:25:22;-0.60;99.90
13123;DHT22;6627;50.920;12.050;2023-02-28T01:27:49;-0.60;99.90
13123;DHT22;6627;50.920;12.050;2023-02-28T01:30:17;-0.70;99.90
13123;DHT22;6627;50.920;12.050;2023-02-28T01:32:44;-0.70;99.90
13123;DHT22;6627;50.920;12.050;2023-02-28T01:37:40;-0.60;99.90
13123;DHT22;6627;50.920;12.050;2023-02-28T01:40:08;-0.60;99.90
13123;DHT22;6627;50.920;12.050;2023-02-28T01:42:36;-0.60;99.90
13123;DHT22;6627;50.920;12.050;2023-02-28T01:45:14;-0.60;99.90
13123;DHT22;6627;50.920;12.050;2023-02-28T01:47:50;-0.70;99.90
13123;DHT22;6627;50.920;12.050;2023-02-28T01:50:22;-0.70;99.90
13123;DHT22;6627;50.920;12.050;2023-02-28T01:52:56;-0.70;99.90
13123;DHT22;6627;50.920;12.050;2023-02-28T01:55:28;-0.80;99.90
13123;DHT22;6627;50.920;12.050;2023-02-28T01:57:58;-0.80;99.90
13123;DHT22;6627;50.920;12.050;2023-02-28T02:00:30;-0.80;99.90
13123;DHT22;6627;50.920;12.050;2023-02-28T02:03:00;-0.90;99.90
13123;DHT22;6627;50.920;12.050;2023-02-28T02:05:31;-0.80;99.90
13123;DHT22;6627;50.920;12.050;2023-02-28T02:08:03;-0.80;99.90
13123;DHT22;6627;50.920;12.050;2023-02-28T02:10:34;-0.80;99.90
13123;DHT22;6627;50.920;12.050;2023-02-28T02:16:13;-0.60;1.00
13123;DHT22;6627;50.920;12.050;2023-02-28T02:18:53;-0.60;1.00
13123;DHT22;6627;50.920;12.050;2023-02-28T02:21:43;-0.60;1.00
13123;DHT22;6627;50.920;12.050;2023-02-28T02:27:54;-0.60;1.00
13123;DHT22;6627;50.920;12.050;2023-02-28T02:31:12;-0.70;1.00
13123;DHT22;6627;50.920;12.050;2023-02-28T02:34:09;-0.70;99.90
13123;DHT22;6627;50.920;12.050;2023-02-28T02:37:03;-0.80;1.00
13123;DHT22;6627;50.920;12.050;2023-02-28T02:39:47;-0.90;1.00
13123;DHT22;6627;50.920;12.050;2023-02-28T02:42:24;-0.90;1.00
13123;DHT22;6627;50.920;12.050;2023-02-28T02:44:59;-0.90;1.00
13123;DHT22;6627;50.920;12.050;2023-02-28T02:47:33;-0.80;1.00
13123;DHT22;6627;50.920;12.050;2023-02-28T02:50:07;-0.80;99.90
13123;DHT22;6627;50.920;12.050;2023-02-28T02:52:42;-0.80;99.90
13123;DHT22;6627;50.920;12.050;2023-02-28T02:55:13;-1.00;99.90
13123;DHT22;6627;50.920;12.050;2023-02-28T02:57:45;-1.00;99.90
13123;DHT22;6627;50.920;12.050;2023-02-28T03:00:18;-0.90;99.90
13123;DHT22;6627;50.920;12.050;2023-02-28T03:02:52;-0.90;99.90
13123;DHT22;6627;50.920;12.050;2023-02-28T03:05:26;-1.00;1.00
13123;DHT22;6627;50.920;12.050;2023-02-28T03:07:56;-1.00;1.00
13123;DHT22;6627;50.920;12.050;2023-02-28T03:10:41;-1.00;1.00
13123;DHT22;6627;50.920;12.050;2023-02-28T03:13:39;-1.00;1.00
13123;DHT22;6627;50.920;12.050;2023-02-28T03:16:28;-1.10;1.00
13123;DHT22;6627;50.920;12.050;2023-02-28T03:19:29;-1.10;1.00
13123;DHT22;6627;50.920;12.050;2023-02-28T03:22:16;-1.10;1.00
13123;DHT22;6627;50.920;12.050;2023-02-28T03:24:58;-1.10;1.00
13123;DHT22;6627;50.920;12.050;2023-02-28T03:27:36;-1.10;1.00
13123;DHT22;6627;50.920;12.050;2023-02-28T03:30:12;-1.20;1.00
13123;DHT22;6627;50.920;12.050;2023-02-28T03:32:50;-1.20;1.00
13123;DHT22;6627;50.920;12.050;2023-02-28T03:35:26;-1.30;1.00
13123;DHT22;6627;50.920;12.050;2023-02-28T03:38:05;-1.30;49.60
13123;DHT22;6627;50.920;12.050;2023-02-28T03:40:37;-1.30;99.90
13123;DHT22;6627;50.920;12.050;2023-02-28T03:43:10;-1.30;99.50
13123;DHT22;6627;50.920;12.050;2023-02-28T03:45:43;-1.30;81.80
13123;DHT22;6627;50.920;12.050;2023-02-28T03:48:15;-1.30;44.00
13123;DHT22;6627;50.920;12.050;2023-02-28T03:50:51;-1.40;90.00
13123;DHT22;6627;50.920;12.050;2023-02-28T03:53:28;-1.40;99.90
13123;DHT22;6627;50.920;12.050;2023-02-28T03:56:05;-1.40;95.60
13123;DHT22;6627;50.920;12.050;2023-02-28T03:58:41;-1.40;93.60
13123;DHT22;6627;50.920;12.050;2023-02-28T04:01:17;-1.40;81.60
13123;DHT22;6627;50.920;12.050;2023-02-28T04:03:49;-1.40;93.60
13123;DHT22;6627;50.920;12.050;2023-02-28T04:06:19;-1.40;96.20
13123;DHT22;6627;50.920;12.050;2023-02-28T04:08:50;-1.30;75.20
13123;DHT22;6627;50.920;12.050;2023-02-28T04:11:21;-1.40;65.50
13123;DHT22;6627;50.920;12.050;2023-02-28T04:13:50;-1.70;99.90
13123;DHT22;6627;50.920;12.050;2023-02-28T04:16:17;-1.80;99.90
13123;DHT22;6627;50.920;12.050;2023-02-28T04:18:44;-1.90;99.90
13123;DHT22;6627;50.920;12.050;2023-02-28T04:21:12;-1.80;99.90
13123;DHT22;6627;50.920;12.050;2023-02-28T04:23:40;-1.80;99.90
13123;DHT22;6627;50.920;12.050;2023-02-28T04:26:08;-1.70;99.90
13123;DHT22;6627;50.920;12.050;2023-02-28T04:28:37;-1.80;99.90
13123;DHT22;6627;50.920;12.050;2023-02-28T04:31:05;-1.80;99.90
13123;DHT22;6627;50.920;12.050;2023-02-28T04:33:32;-1.70;99.90
13123;DHT22;6627;50.920;12.050;2023-02-28T04:36:01;-1.80;99.90
13123;DHT22;6627;50.920;12.050;2023-02-28T04:38:32;-1.90;99.90
13123;DHT22;6627;50.920;12.050;2023-02-28T04:41:00;-1.90;99.90
13123;DHT22;6627;50.920;12.050;2023-02-28T04:43:29;-1.80;99.90
13123;DHT22;6627;50.920;12.050;2023-02-28T04:46:00;-2.00;99.90
13123;DHT22;6627;50.920;12.050;2023-02-28T04:48:29;-2.00;99.90
13123;DHT22;6627;50.920;12.050;2023-02-28T04:51:00;-1.90;99.90
13123;DHT22;6627;50.920;12.050;2023-02-28T04:53:28;-1.90;99.90
13123;DHT22;6627;50.920;12.050;2023-02-28T04:55:56;-2.10;99.90
13123;DHT22;6627;50.920;12.050;2023-02-28T04:58:23;-2.10;99.90
13123;DHT22;6627;50.920;12.050;2023-02-28T05:00:53;-2.20;99.90
13123;DHT22;6627;50.920;12.050;2023-02-28T05:05:48;-2.20;99.90
13123;DHT22;6627;50.920;12.050;2023-02-28T05:08:15;-2.20;99.90
13123;DHT22;6627;50.920;12.050;2023-02-28T05:10:42;-2.30;99.90
13123;DHT22;6627;50.920;12.050;2023-02-28T05:13:11;-2.30;99.90
13123;DHT22;6627;50.920;12.050;2023-02-28T05:15:39;-2.30;99.90
13123;DHT22;6627;50.920;12.050;2023-02-28T05:18:09;-2.30;99.90
13123;DHT22;6627;50.920;12.050;2023-02-28T05:20:36;-2.40;99.90
13123;DHT22;6627;50.920;12.050;2023-02-28T05:23:03;-2.40;99.90
13123;DHT22;6627;50.920;12.050;2023-02-28T05:25:30;-2.50;99.90
13123;DHT22;6627;50.920;12.050;2023-02-28T05:27:57;-2.60;99.90
13123;DHT22;6627;50.920;12.050;2023-02-28T05:30:24;-2.80;99.90
13123;DHT22;6627;50.920;12.050;2023-02-28T05:32:52;-2.80;99.90
13123;DHT22;6627;50.920;12.050;2023-02-28T05:35:20;-2.80;99.90
13123;DHT22;6627;50.920;12.050;2023-02-28T05:37:47;-2.90;99.90
13123;DHT22;6627;50.920;12.050;2023-02-28T05:40:15;-2.80;99.90
13123;DHT22;6627;50.920;12.050;2023-02-28T05:42:42;-2.80;99.90
13123;DHT22;6627;50.920;12.050;2023-02-28T05:45:10;-2.80;99.90
13123;DHT22;6627;50.920;12.050;2023-02-28T05:47:37;-2.70;99.90
13123;DHT22;6627;50.920;12.050;2023-02-28T05:50:05;-2.70;99.90
13123;DHT22;6627;50.920;12.050;2023-02-28T05:52:36;-2.70;99.90
13123;DHT22;6627;50.920;12.050;2023-02-28T05:55:04;-2.90;99.90
13123;DHT22;6627;50.920;12.050;2023-02-28T05:57:32;-3.00;99.90
13123;DHT22;6627;50.920;12.050;2023-02-28T05:59:59;-3.00;99.90
13123;DHT22;6627;50.920;12.050;2023-02-28T06:02:27;-3.00;99.90
13123;DHT22;6627;50.920;12.050;2023-02-28T06:04:54;-3.00;99.90
13123;DHT22;6627;50.920;12.050;2023-02-28T06:07:21;-3.00;99.90
13123;DHT22;6627;50.920;12.050;2023-02-28T06:09:50;-2.90;99.90
13123;DHT22;6627;50.920;12.050;2023-02-28T06:12:18;-2.90;99.90
13123;DHT22;6627;50.920;12.050;2023-02-28T06:14:45;-2.80;99.90
13123;DHT22;6627;50.920;12.050;2023-02-28T06:17:12;-2.60;99.90
13123;DHT22;6627;50.920;12.050;2023-02-28T06:19:39;-2.70;99.90
13123;DHT22;6627;50.920;12.050;2023-02-28T06:22:07;-2.60;99.90
13123;DHT22;6627;50.920;12.050;2023-02-28T06:24:34;-2.60;99.90
13123;DHT22;6627;50.920;12.050;2023-02-28T06:27:03;-2.70;99.90
13123;DHT22;6627;50.920;12.050;2023-02-28T06:29:31;-2.60;99.90
13123;DHT22;6627;50.920;12.050;2023-02-28T06:31:59;-2.50;99.90
13123;DHT22;6627;50.920;12.050;2023-02-28T06:34:26;-2.50;99.90
13123;DHT22;6627;50.920;12.050;2023-02-28T06:36:53;-2.40;99.90
13123;DHT22;6627;50.920;12.050;2023-02-28T06:39:20;-2.40;99.90
13123;DHT22;6627;50.920;12.050;2023-02-28T06:41:48;-2.40;99.90
13123;DHT22;6627;50.920;12.050;2023-02-28T06:46:46;-2.40;99.90
13123;DHT22;6627;50.920;12.050;2023-02-28T06:49:14;-2.30;99.90
13123;DHT22;6627;50.920;12.050;2023-02-28T06:51:44;-2.20;99.90
13123;DHT22;6627;50.920;12.050;2023-02-28T06:54:12;-2.20;99.90
13123;DHT22;6627;50.920;12.050;2023-02-28T06:56:40;-2.20;99.90
13123;DHT22;6627;50.920;12.050;2023-02-28T06:59:07;-2.10;99.90
13123;DHT22;6627;50.920;12.050;2023-02-28T07:01:36;-2.10;99.90
13123;DHT22;6627;50.920;12.050;2023-02-28T07:04:05;-2.00;99.90
13123;DHT22;6627;50.920;12.050;2023-02-28T07:06:33;-2.10;99.90
13123;DHT22;6627;50.920;12.050;2023-02-28T07:09:00;-2.00;99.90
13123;DHT22;6627;50.920;12.050;2023-02-28T07:11:28;-2.00;99.90
13123;DHT22;6627;50.920;12.050;2023-02-28T07:13:56;-1.90;99.90
13123;DHT22;6627;50.920;12.050;2023-02-28T07:16:25;-1.80;99.90
13123;DHT22;6627;50.920;12.050;2023-02-28T07:18:54;-1.60;99.90
13123;DHT22;6627;50.920;12.050;2023-02-28T07:21:21;-1.50;99.90
13123;DHT22;6627;50.920;12.050;2023-02-28T07:23:49;-1.50;99.90
13123;DHT22;6627;50.920;12.050;2023-02-28T07:26:18;-1.40;99.90
13123;DHT22;6627;50.920;12.050;2023-02-28T07:28:47;-1.20;99.90
13123;DHT22;6627;50.920;12.050;2023-02-28T07:31:15;-1.10;99.90
13123;DHT22;6627;50.920;12.050;2023-02-28T07:33:44;-1.00;99.90
13123;DHT22;6627;50.920;12.050;2023-02-28T07:36:14;-0.90;99.90
13123;DHT22;6627;50.920;12.050;2023-02-28T07:38:44;-0.70;99.90
13123;DHT22;6627;50.920;12.050;2023-02-28T07:41:14;-0.60;99.90
13123;DHT22;6627;50.920;12.050;2023-02-28T07:43:41;-0.50;99.90
13123;DHT22;6627;50.920;12.050;2023-02-28T07:46:12;-0.40;99.90
13123;DHT22;6627;50.920;12.050;2023-02-28T07:48:41;-0.30;30.00
13123;DHT22;6627;50.920;12.050;2023-02-28T07:51:09;-0.30;11.30
13123;DHT22;6627;50.920;12.050;2023-02-28T07:53:38;-0.30;1.00
13123;DHT22;6627;50.920;12.050;2023-02-28T07:56:06;-0.20;1.00
13123;DHT22;6627;50.920;12.050;2023-02-28T07:58:34;-0.20;1.00
13123;DHT22;6627;50.920;12.050;2023-02-28T08:01:05;-0.10;99.90
13123;DHT22;6627;50.920;12.050;2023-02-28T08:03:34;0.00;1.00
13123;DHT22;6627;50.920;12.050;2023-02-28T08:06:02;0.10;99.90
13123;DHT22;6627;50.920;12.050;2023-02-28T08:08:30;0.20;56.80
13123;DHT22;6627;50.920;12.050;2023-02-28T08:11:00;0.20;1.00
13123;DHT22;6627;50.920;12.050;2023-02-28T08:13:28;0.20;99.90
13123;DHT22;6627;50.920;12.050;2023-02-28T08:15:57;0.30;99.90
13123;DHT22;6627;50.920;12.050;2023-02-28T08:18:24;0.30;1.00
13123;DHT22;6627;50.920;12.050;2023-02-28T08:20:51;0.50;26.50
13123;DHT22;6627;50.920;12.050;2023-02-28T08:23:18;0.50;99.90
13123;DHT22;6627;50.920;12.050;2023-02-28T08:25:53;0.60;1.00
13123;DHT22;6627;50.920;12.050;2023-02-28T08:28:22;0.60;1.00
13123;DHT22;6627;50.920;12.050;2023-02-28T08:30:50;0.60;99.90
13123;DHT22;6627;50.920;12.050;2023-02-28T08:33:17;0.80;96.70
13123;DHT22;6627;50.920;12.050;2023-02-28T08:35:44;0.80;1.00
13123;DHT22;6627;50.920;12.050;2023-02-28T08:38:12;0.80;99.90
13123;DHT22;6627;50.920;12.050;2023-02-28T08:40:40;0.80;99.90
13123;DHT22;6627;50.920;12.050;2023-02-28T08:43:08;0.90;1.00
13123;DHT22;6627;50.920;12.050;2023-02-28T08:45:37;1.00;1.00
13123;DHT22;6627;50.920;12.050;2023-02-28T08:48:04;1.10;99.90
13123;DHT22;6627;50.920;12.050;2023-02-28T08:50:31;1.10;99.90
13123;DHT22;6627;50.920;12.050;2023-02-28T08:52:59;1.10;90.90
13123;DHT22;6627;50.920;12.050;2023-02-28T08:55:26;1.10;1.00
13123;DHT22;6627;50.920;12.050;2023-02-28T08:57:53;1.30;1.00
13123;DHT22;6627;50.920;12.050;2023-02-28T09:00:21;1.30;1.00
13123;DHT22;6627;50.920;12.050;2023-02-28T09:02:50;1.40;1.00
13123;DHT22;6627;50.920;12.050;2023-02-28T09:05:17;1.50;99.90
13123;DHT22;6627;50.920;12.050;2023-02-28T09:07:45;1.50;99.90
13123;DHT22;6627;50.920;12.050;2023-02-28T09:10:12;1.50;10.20
13123;DHT22;6627;50.920;12.050;2023-02-28T09:12:39;1.60;1.00
13123;DHT22;6627;50.920;12.050;2023-02-28T09:15:07;1.70;1.00
13123;DHT22;6627;50.920;12.050;2023-02-28T09:17:35;1.80;1.00
13123;DHT22;6627;50.920;12.050;2023-02-28T09:20:05;1.90;1.00
13123;DHT22;6627;50.920;12.050;2023-02-28T09:22:33;1.90;99.90
13123;DHT22;6627;50.920;12.050;2023-02-28T09:25:01;2.10;99.90
13123;DHT22;6627;50.920;12.050;2023-02-28T09:27:29;2.10;88.20
13123;DHT22;6627;50.920;12.050;2023-02-28T09:29:56;2.20;1.00
13123;DHT22;6627;50.920;12.050;2023-02-28T09:32:23;2.20;1.00
13123;DHT22;6627;50.920;12.050;2023-02-28T09:34:50;2.30;1.00
13123;DHT22;6627;50.920;12.050;2023-02-28T09:37:19;2.30;1.00
13123;DHT22;6627;50.920;12.050;2023-02-28T09:39:46;2.40;1.00
13123;DHT22;6627;50.920;12.050;2023-02-28T09:42:21;2.50;99.90
13123;DHT22;6627;50.920;12.050;2023-02-28T09:44:52;2.50;99.90
13123;DHT22;6627;50.920;12.050;2023-02-28T09:47:27;2.60;99.90
13123;DHT22;6627;50.920;12.050;2023-02-28T09:50:04;2.70;1.00
13123;DHT22;6627;50.920;12.050;2023-02-28T09:52:40;2.70;1.00
13123;DHT22;6627;50.920;12.050;2023-02-28T09:55:19;2.80;1.00
13123;DHT22;6627;50.920;12.050;2023-02-28T09:57:50;2.80;1.00
13123;DHT22;6627;50.920;12.050;2023-02-28T10:00:22;3.00;1.00
13123;DHT22;6627;50.920;12.050;2023-02-28T10:03:06;3.10;99.90
13123;DHT22;6627;50.920;12.050;2023-02-28T10:05:56;3.00;99.90
13123;DHT22;6627;50.920;12.050;2023-02-28T10:08:35;3.30;99.90
13123;DHT22;6627;50.920;12.050;2023-02-28T10:11:09;3.30;99.90
13123;DHT22;6627;50.920;12.050;2023-02-28T10:13:49;3.10;1.00
13123;DHT22;6627;50.920;12.050;2023-02-28T10:16:25;2.90;1.00
13123;DHT22;6627;50.920;12.050;2023-02-28T10:19:03;2.70;1.00
13123;DHT22;6627;50.920;12.050;2023-02-28T10:21:36;2.70;1.00
13123;DHT22;6627;50.920;12.050;2023-02-28T10:24:19;3.00;1.00
13123;DHT22;6627;50.920;12.050;2023-02-28T10:26:52;2.90;99.90
13123;DHT22;6627;50.920;12.050;2023-02-28T10:29:33;2.80;99.90
13123;DHT22;6627;50.920;12.050;2023-02-28T10:32:02;3.10;99.90
13123;DHT22;6627;50.920;12.050;2023-02-28T10:34:31;3.20;99.90
13123;DHT22;6627;50.920;12.050;2023-02-28T10:36:59;3.40;99.90
13123;DHT22;6627;50.920;12.050;2023-02-28T10:39:40;3.40;99.90
13123;DHT22;6627;50.920;12.050;2023-02-28T10:42:23;3.50;22.50
13123;DHT22;6627;50.920;12.050;2023-02-28T10:45:10;3.80;95.50
13123;DHT22;6627;50.920;12.050;2023-02-28T10:47:52;3.90;1.00
13123;DHT22;6627;50.920;12.050;2023-02-28T10:50:35;3.60;1.00
13123;DHT22;6627;50.920;12.050;2023-02-28T10:53:30;3.60;1.00
13123;DHT22;6627;50.920;12.050;2023-02-28T10:56:03;3.70;1.00
13123;DHT22;6627;50.920;12.050;2023-02-28T10:58:46;3.50;1.00
13123;DHT22;6627;50.920;12.050;2023-02-28T11:01:17;3.50;99.90
13123;DHT22;6627;50.920;12.050;2023-02-28T11:06:17;3.60;99.90
13123;DHT22;6627;50.920;12.050;2023-02-28T11:08:49;3.50;99.90
13123;DHT22;6627;50.920;12.050;2023-02-28T11:11:21;3.70;99.90
13123;DHT22;6627;50.920;12.050;2023-02-28T11:13:53;3.80;99.90
13123;DHT22;6627;50.920;12.050;2023-02-28T11:16:32;3.70;75.20
13123;DHT22;6627;50.920;12.050;2023-02-28T11:19:02;3.60;42.40
13123;DHT22;6627;50.920;12.050;2023-02-28T11:21:33;3.70;5.50
13123;DHT22;6627;50.920;12.050;2023-02-28T11:24:14;3.60;1.00
13123;DHT22;6627;50.920;12.050;2023-02-28T11:26:50;3.70;1.00
13123;DHT22;6627;50.920;12.050;2023-02-28T11:29:20;3.60;1.00
13123;DHT22;6627;50.920;12.050;2023-02-28T11:32:03;3.60;1.00
13123;DHT22;6627;50.920;12.050;2023-02-28T11:34:38;3.70;1.00
13123;DHT22;6627;50.920;12.050;2023-02-28T11:37:12;3.90;1.00
13123;DHT22;6627;50.920;12.050;2023-02-28T11:39:40;4.00;1.00
13123;DHT22;6627;50.920;12.050;2023-02-28T11:42:35;4.10;1.00
13123;DHT22;6627;50.920;12.050;2023-02-28T11:45:22;4.10;1.00
13123;DHT22;6627;50.920;12.050;2023-02-28T11:48:10;4.00;1.00
13123;DHT22;6627;50.920;12.050;2023-02-28T11:50:54;4.20;99.90
13123;DHT22;6627;50.920;12.050;2023-02-28T11:56:50;3.70;99.90
13123;DHT22;6627;50.920;12.050;2023-02-28T11:59:35;3.90;99.90
13123;DHT22;6627;50.920;12.050;2023-02-28T12:02:26;3.90;99.90
13123;DHT22;6627;50.920;12.050;2023-02-28T12:05:18;4.20;99.90
13123;DHT22;6627;50.920;12.050;2023-02-28T12:08:03;4.30;99.90
13123;DHT22;6627;50.920;12.050;2023-02-28T12:11:07;4.30;99.90
13123;DHT22;6627;50.920;12.050;2023-02-28T12:13:49;4.30;99.90
13123;DHT22;6627;50.920;12.050;2023-02-28T12:16:49;4.50;99.90
13123;DHT22;6627;50.920;12.050;2023-02-28T12:19:30;4.40;58.90
13123;DHT22;6627;50.920;12.050;2023-02-28T12:22:28;4.20;1.00
13123;DHT22;6627;50.920;12.050;2023-02-28T12:28:13;4.20;1.00
13123;DHT22;6627;50.920;12.050;2023-02-28T12:30:49;4.20;1.00
13123;DHT22;6627;50.920;12.050;2023-02-28T12:33:26;4.20;1.00
13123;DHT22;6627;50.920;12.050;2023-02-28T12:36:04;4.10;1.00
13123;DHT22;6627;50.920;12.050;2023-02-28T12:38:41;4.30;1.00
13123;DHT22;6627;50.920;12.050;2023-02-28T12:41:14;4.30;1.00
13123;DHT22;6627;50.920;12.050;2023-02-28T12:43:49;4.50;1.00
13123;DHT22;6627;50.920;12.050;2023-02-28T12:46:24;4.50;1.00
13123;DHT22;6627;50.920;12.050;2023-02-28T12:49:00;4.50;1.00
13123;DHT22;6627;50.920;12.050;2023-02-28T12:51:34;4.60;1.00
13123;DHT22;6627;50.920;12.050;2023-02-28T12:54:12;4.50;1.00
13123;DHT22;6627;50.920;12.050;2023-02-28T12:56:53;4.50;1.00
13123;DHT22;6627;50.920;12.050;2023-02-28T12:59:35;4.20;1.00
13123;DHT22;6627;50.920;12.050;2023-02-28T13:02:31;4.60;1.00
13123;DHT22;6627;50.920;12.050;2023-02-28T13:05:38;4.70;1.00
13123;DHT22;6627;50.920;12.050;2023-02-28T13:11:29;4.70;1.00
13123;DHT22;6627;50.920;12.050;2023-02-28T13:14:01;4.60;1.00
13123;DHT22;6627;50.920;12.050;2023-02-28T13:16:48;4.50;1.00
13123;DHT22;6627;50.920;12.050;2023-02-28T13:19:22;4.00;99.90
13123;DHT22;6627;50.920;12.050;2023-02-28T13:21:54;4.00;99.90
13123;DHT22;6627;50.920;12.050;2023-02-28T13:24:50;4.00;99.90
13123;DHT22;6627;50.920;12.050;2023-02-28T13:27:33;4.10;99.90
13123;DHT22;6627;50.920;12.050;2023-02-28T13:33:26;4.20;99.90
13123;DHT22;6627;50.920;12.050;2023-02-28T13:36:23;4.50;99.90
13123;DHT22;6627;50.920;12.050;2023-02-28T13:38:54;4.50;99.90
13123;DHT22;6627;50.920;12.050;2023-02-28T13:41:48;4.60;99.90
13123;DHT22;6627;50.920;12.050;2023-02-28T13:44:18;4.50;99.90
13123;DHT22;6627;50.920;12.050;2023-02-28T13:47:21;4.70;99.90
13123;DHT22;6627;50.920;12.050;2023-02-28T13:49:52;4.30;99.90
13123;DHT22;6627;50.920;12.050;2023-02-28T13:52:22;4.10;99.90
13123;DHT22;6627;50.920;12.050;2023-02-28T13:55:14;4.20;99.90
13123;DHT22;6627;50.920;12.050;2023-02-28T13:58:01;4.30;99.90
13123;DHT22;6627;50.920;12.050;2023-02-28T14:00:52;4.50;99.90
13123;DHT22;6627;50.920;12.050;2023-02-28T14:03:58;4.50;99.90
13123;DHT22;6627;50.920;12.050;2023-02-28T14:06:47;4.30;99.90
13123;DHT22;6627;50.920;12.050;2023-02-28T14:09:22;4.50;99.90
13123;DHT22;6627;50.920;12.050;2023-02-28T14:11:53;4.50;99.90
13123;DHT22;6627;50.920;12.050;2023-02-28T14:14:55;4.70;99.90
13123;DHT22;6627;50.920;12.050;2023-02-28T14:17:25;4.60;99.90
13123;DHT22;6627;50.920;12.050;2023-02-28T14:19:53;4.70;99.90
13123;DHT22;6627;50.920;12.050;2023-02-28T14:22:42;4.60;99.90
13123;DHT22;6627;50.920;12.050;2023-02-28T14:25:23;4.50;99.90
13123;DHT22;6627;50.920;12.050;2023-02-28T14:28:11;4.50;99.90
13123;DHT22;6627;50.920;12.050;2023-02-28T14:30:56;4.40;99.90
13123;DHT22;6627;50.920;12.050;2023-02-28T14:36:32;4.40;99.90
13123;DHT22;6627;50.920;12.050;2023-02-28T14:39:06;4.40;99.90
13123;DHT22;6627;50.920;12.050;2023-02-28T14:41:39;4.50;99.90
13123;DHT22;6627;50.920;12.050;2023-02-28T14:44:17;4.60;99.90
13123;DHT22;6627;50.920;12.050;2023-02-28T14:46:48;4.80;99.90
13123;DHT22;6627;50.920;12.050;2023-02-28T14:49:20;4.90;99.90
13123;DHT22;6627;50.920;12.050;2023-02-28T14:51:51;4.70;99.90
13123;DHT22;6627;50.920;12.050;2023-02-28T14:54:30;4.80;99.90
13123;DHT22;6627;50.920;12.050;2023-02-28T14:56:57;4.80;99.90
13123;DHT22;6627;50.920;12.050;2023-02-28T14:59:28;4.90;99.90
13123;DHT22;6627;50.920;12.050;2023-02-28T15:02:16;4.90;99.90
13123;DHT22;6627;50.920;12.050;2023-02-28T15:04:53;5.10;99.90
13123;DHT22;6627;50.920;12.050;2023-02-28T15:07:21;4.90;99.90
13123;DHT22;6627;50.920;12.050;2023-02-28T15:10:17;4.60;99.90
13123;DHT22;6627;50.920;12.050;2023-02-28T15:12:52;4.50;99.90
13123;DHT22;6627;50.920;12.050;2023-02-28T15:15:26;4.20;90.40
13123;DHT22;6627;50.920;12.050;2023-02-28T15:17:59;4.40;99.90
13123;DHT22;6627;50.920;12.050;2023-02-28T15:20:32;4.40;87.50
13123;DHT22;6627;50.920;12.050;2023-02-28T15:23:01;4.40;63.80
13123;DHT22;6627;50.920;12.050;2023-02-28T15:27:56;4.30;22.90
13123;DHT22;6627;50.920;12.050;2023-02-28T15:30:27;4.30;32.60
13123;DHT22;6627;50.920;12.050;2023-02-28T15:33:05;4.20;37.90
13123;DHT22;6627;50.920;12.050;2023-02-28T15:35:44;4.40;54.70
13123;DHT22;6627;50.920;12.050;2023-02-28T15:38:17;4.30;56.60
13123;DHT22;6627;50.920;12.050;2023-02-28T15:40:51;4.40;49.10
13123;DHT22;6627;50.920;12.050;2023-02-28T15:43:27;4.30;32.20
13123;DHT22;6627;50.920;12.050;2023-02-28T15:45:58;4.40;38.10
13123;DHT22;6627;50.920;12.050;2023-02-28T15:48:29;4.10;1.00
13123;DHT22;6627;50.920;12.050;2023-02-28T15:51:05;4.10;19.70
13123;DHT22;6627;50.920;12.050;2023-02-28T15:53:37;4.30;45.60
13123;DHT22;6627;50.920;12.050;2023-02-28T15:56:20;4.40;47.30
13123;DHT22;6627;50.920;12.050;2023-02-28T15:58:52;4.10;8.60
13123;DHT22;6627;50.920;12.050;2023-02-28T16:01:25;4.30;24.10
13123;DHT22;6627;50.920;12.050;2023-02-28T16:03:58;3.90;40.70
13123;DHT22;6627;50.920;12.050;2023-02-28T16:06:36;4.20;89.20
13123;DHT22;6627;50.920;12.050;2023-02-28T16:09:06;4.40;91.50
13123;DHT22;6627;50.920;12.050;2023-02-28T16:11:39;4.20;66.30
13123;DHT22;6627;50.920;12.050;2023-02-28T16:16:45;4.10;22.20
13123;DHT22;6627;50.920;12.050;2023-02-28T16:19:14;3.70;9.60
13123;DHT22;6627;50.920;12.050;2023-02-28T16:21:41;3.40;5.90
13123;DHT22;6627;50.920;12.050;2023-02-28T16:24:08;3.50;40.10
13123;DHT22;6627;50.920;12.050;2023-02-28T16:26:36;3.40;64.00
13123;DHT22;6627;50.920;12.050;2023-02-28T16:31:37;3.00;99.90
13123;DHT22;6627;50.920;12.050;2023-02-28T16:34:06;2.90;99.90
13123;DHT22;6627;50.920;12.050;2023-02-28T16:36:33;2.80;99.90
13123;DHT22;6627;50.920;12.050;2023-02-28T16:39:00;2.80;99.90
13123;DHT22;6627;50.920;12.050;2023-02-28T16:41:28;2.90;99.90
13123;DHT22;6627;50.920;12.050;2023-02-28T16:43:57;2.80;99.90
13123;DHT22;6627;50.920;12.050;2023-02-28T16:46:30;2.60;99.90
13123;DHT22;6627;50.920;12.050;2023-02-28T16:49:00;2.40;99.90
13123;DHT22;6627;50.920;12.050;2023-02-28T16:51:29;2.40;99.90
13123;DHT22;6627;50.920;12.050;2023-02-28T16:53:56;2.50;99.90
13123;DHT22;6627;50.920;12.050;2023-02-28T16:56:24;2.30;99.90
13123;DHT22;6627;50.920;12.050;2023-02-28T16:58:55;2.40;99.90
13123;DHT22;6627;50.920;12.050;2023-02-28T17:01:26;2.50;99.90
13123;DHT22;6627;50.920;12.050;2023-02-28T17:03:54;2.30;99.90
13123;DHT22;6627;50.920;12.050;2023-02-28T17:06:23;2.20;99.90